sensor_id;sensor_type;location;lat;lon;timestamp;temperature;humidity
28171;DHT22;15458;53.346;-1.688;2023-07-22T00:02:17;14.10;99.90
28171;DHT22;15458;53.346;-1.688;2023-07-22T00:04:43;14.10;99.90
28171;DHT22;15458;53.346;-1.688;2023-07-22T00:07:11;14.10;99.90
28171;DHT22;15458;53.346;-1.688;2023-07-22T00:09:36;14.10;99.90
28171;DHT22;15458;53.346;-1.688;2023-07-22T00:12:04;14.10;99.90
28171;DHT22;15458;53.346;-1.688;2023-07-22T00:14:31;14.10;99.90
28171;DHT22;15458;53.346;-1.688;2023-07-22T00:16:57;14.10;99.90
28171;DHT22;15458;53.346;-1.688;2023-07-22T00:19:22;14.10;99.90
28171;DHT22;15458;53.346;-1.688;2023-07-22T00:21:49;14.00;99.90
28171;DHT22;15458;53.346;-1.688;2023-07-22T00:24:14;14.00;99.90
28171;DHT22;15458;53.346;-1.688;2023-07-22T00:26:41;14.00;99.90
28171;DHT22;15458;53.346;-1.688;2023-07-22T00:29:07;14.00;99.90
28171;DHT22;15458;53.346;-1.688;2023-07-22T00:31:33;14.00;99.90
28171;DHT22;15458;53.346;-1.688;2023-07-22T00:33:59;14.00;99.90
28171;DHT22;15458;53.346;-1.688;2023-07-22T00:36:25;14.00;99.90
28171;DHT22;15458;53.346;-1.688;2023-07-22T00:38:51;14.00;99.90
28171;DHT22;15458;53.346;-1.688;2023-07-22T00:41:18;13.90;99.90
28171;DHT22;15458;53.346;-1.688;2023-07-22T00:43:44;13.90;99.90
28171;DHT22;15458;53.346;-1.688;2023-07-22T00:46:09;13.90;99.90
28171;DHT22;15458;53.346;-1.688;2023-07-22T00:48:35;13.90;99.90
28171;DHT22;15458;53.346;-1.688;2023-07-22T00:51:01;13.90;99.90
28171;DHT22;15458;53.346;-1.688;2023-07-22T00:53:27;13.80;99.90
28171;DHT22;15458;53.346;-1.688;2023-07-22T00:55:54;13.80;99.90
28171;DHT22;15458;53.346;-1.688;2023-07-22T00:58:20;13.80;99.90
28171;DHT22;15458;53.346;-1.688;2023-07-22T01:00:46;13.80;99.90
28171;DHT22;15458;53.346;-1.688;2023-07-22T01:03:13;13.80;99.90
28171;DHT22;15458;53.346;-1.688;2023-07-22T01:05:39;13.70;99.90
28171;DHT22;15458;53.346;-1.688;2023-07-22T01:08:05;13.80;99.90
28171;DHT22;15458;53.346;-1.688;2023-07-22T01:10:31;13.70;99.90
28171;DHT22;15458;53.346;-1.688;2023-07-22T01:12:57;13.80;99.90
28171;DHT22;15458;53.346;-1.688;2023-07-22T01:15:24;13.80;99.90
28171;DHT22;15458;53.346;-1.688;2023-07-22T01:17:51;13.80;99.90
28171;DHT22;15458;53.346;-1.688;2023-07-22T01:20:18;13.70;99.90
28171;DHT22;15458;53.346;-1.688;2023-07-22T01:22:55;13.70;99.90
28171;DHT22;15458;53.346;-1.688;2023-07-22T01:25:22;13.70;99.90
28171;DHT22;15458;53.346;-1.688;2023-07-22T01:27:49;13.60;99.90
28171;DHT22;15458;53.346;-1.688;2023-07-22T01:30:15;13.60;99.90
28171;DHT22;15458;53.346;-1.688;2023-07-22T01:32:41;13.60;99.90
28171;DHT22;15458;53.346;-1.688;2023-07-22T01:35:07;13.50;99.90
28171;DHT22;15458;53.346;-1.688;2023-07-22T01:37:34;13.50;99.90
28171;DHT22;15458;53.346;-1.688;2023-07-22T01:40:00;13.50;99.90
28171;DHT22;15458;53.346;-1.688;2023-07-22T01:42:26;13.50;99.90
28171;DHT22;15458;53.346;-1.688;2023-07-22T01:44:53;13.50;99.90
28171;DHT22;15458;53.346;-1.688;2023-07-22T01:47:18;13.40;99.90
28171;DHT22;15458;53.346;-1.688;2023-07-22T01:49:44;13.40;99.90
28171;DHT22;15458;53.346;-1.688;2023-07-22T01:52:10;13.40;99.90
28171;DHT22;15458;53.346;-1.688;2023-07-22T01:54:36;13.40;99.90
28171;DHT22;15458;53.346;-1.688;2023-07-22T01:57:02;13.40;99.90
28171;DHT22;15458;53.346;-1.688;2023-07-22T01:59:28;13.40;99.90
28171;DHT22;15458;53.346;-1.688;2023-07-22T02:01:53;13.40;99.90
28171;DHT22;15458;53.346;-1.688;2023-07-22T02:04:19;13.40;99.90
28171;DHT22;15458;53.346;-1.688;2023-07-22T02:06:44;13.40;99.90
28171;DHT22;15458;53.346;-1.688;2023-07-22T02:09:10;13.40;99.90
28171;DHT22;15458;53.346;-1.688;2023-07-22T02:11:38;13.40;99.90
28171;DHT22;15458;53.346;-1.688;2023-07-22T02:14:04;13.40;99.90
28171;DHT22;15458;53.346;-1.688;2023-07-22T02:16:36;13.40;99.90
28171;DHT22;15458;53.346;-1.688;2023-07-22T02:19:03;13.40;99.90
28171;DHT22;15458;53.346;-1.688;2023-07-22T02:21:29;13.40;99.90
28171;DHT22;15458;53.346;-1.688;2023-07-22T02:23:54;13.50;99.90
28171;DHT22;15458;53.346;-1.688;2023-07-22T02:26:20;13.40;99.90
28171;DHT22;15458;53.346;-1.688;2023-07-22T02:28:46;13.40;99.90
28171;DHT22;15458;53.346;-1.688;2023-07-22T02:31:12;13.40;99.90
28171;DHT22;15458;53.346;-1.688;2023-07-22T02:33:38;13.40;99.90
28171;DHT22;15458;53.346;-1.688;2023-07-22T02:36:03;13.40;99.90
28171;DHT22;15458;53.346;-1.688;2023-07-22T02:38:29;13.40;99.90
28171;DHT22;15458;53.346;-1.688;2023-07-22T02:40:59;13.40;99.90
28171;DHT22;15458;53.346;-1.688;2023-07-22T02:43:26;13.40;99.90
28171;DHT22;15458;53.346;-1.688;2023-07-22T02:45:53;13.40;99.90
28171;DHT22;15458;53.346;-1.688;2023-07-22T02:48:18;13.40;99.90
28171;DHT22;15458;53.346;-1.688;2023-07-22T02:50:44;13.40;99.90
28171;DHT22;15458;53.346;-1.688;2023-07-22T02:53:11;13.40;99.90
28171;DHT22;15458;53.346;-1.688;2023-07-22T02:55:36;13.40;99.90
28171;DHT22;15458;53.346;-1.688;2023-07-22T02:58:02;13.30;99.90
28171;DHT22;15458;53.346;-1.688;2023-07-22T03:00:28;13.40;99.90
28171;DHT22;15458;53.346;-1.688;2023-07-22T03:02:55;13.40;99.90
28171;DHT22;15458;53.346;-1.688;2023-07-22T03:05:28;13.40;99.90
28171;DHT22;15458;53.346;-1.688;2023-07-22T03:07:54;13.40;99.90
28171;DHT22;15458;53.346;-1.688;2023-07-22T03:10:20;13.30;99.90
28171;DHT22;15458;53.346;-1.688;2023-07-22T03:12:45;13.40;99.90
28171;DHT22;15458;53.346;-1.688;2023-07-22T03:15:11;13.40;99.90
28171;DHT22;15458;53.346;-1.688;2023-07-22T03:17:39;13.40;99.90
28171;DHT22;15458;53.346;-1.688;2023-07-22T03:20:07;13.30;99.90
28171;DHT22;15458;53.346;-1.688;2023-07-22T03:22:40;13.30;99.90
28171;DHT22;15458;53.346;-1.688;2023-07-22T03:25:11;13.30;99.90
28171;DHT22;15458;53.346;-1.688;2023-07-22T03:27:37;13.30;99.90
28171;DHT22;15458;53.346;-1.688;2023-07-22T03:30:04;13.20;99.90
28171;DHT22;15458;53.346;-1.688;2023-07-22T03:32:33;13.20;99.90
28171;DHT22;15458;53.346;-1.688;2023-07-22T03:34:59;13.20;99.90
28171;DHT22;15458;53.346;-1.688;2023-07-22T03:37:25;13.20;99.90
28171;DHT22;15458;53.346;-1.688;2023-07-22T03:39:50;13.20;99.90
28171;DHT22;15458;53.346;-1.688;2023-07-22T03:42:16;13.10;99.90
28171;DHT22;15458;53.346;-1.688;2023-07-22T03:44:42;13.10;99.90
28171;DHT22;15458;53.346;-1.688;2023-07-22T03:47:07;13.10;99.90
28171;DHT22;15458;53.346;-1.688;2023-07-22T03:49:33;13.10;99.90
28171;DHT22;15458;53.346;-1.688;2023-07-22T03:51:58;13.10;99.90
28171;DHT22;15458;53.346;-1.688;2023-07-22T03:54:24;13.10;99.90
28171;DHT22;15458;53.346;-1.688;2023-07-22T03:56:50;13.10;99.90
28171;DHT22;15458;53.346;-1.688;2023-07-22T03:59:15;13.10;99.90
28171;DHT22;15458;53.346;-1.688;2023-07-22T04:01:41;13.10;99.90
28171;DHT22;15458;53.346;-1.688;2023-07-22T04:04:07;13.10;99.90
28171;DHT22;15458;53.346;-1.688;2023-07-22T04:06:32;13.10;99.90
28171;DHT22;15458;53.346;-1.688;2023-07-22T04:08:58;13.10;99.90
28171;DHT22;15458;53.346;-1.688;2023-07-22T04:11:26;13.10;99.90
28171;DHT22;15458;53.346;-1.688;2023-07-22T04:13:52;13.10;99.90
28171;DHT22;15458;53.346;-1.688;2023-07-22T04:16:18;13.10;99.90
28171;DHT22;15458;53.346;-1.688;2023-07-22T04:18:43;13.20;99.90
28171;DHT22;15458;53.346;-1.688;2023-07-22T04:21:09;13.10;99.90
28171;DHT22;15458;53.346;-1.688;2023-07-22T04:23:34;13.10;99.90
28171;DHT22;15458;53.346;-1.688;2023-07-22T04:26:02;13.10;99.90
28171;DHT22;15458;53.346;-1.688;2023-07-22T04:28:30;13.10;99.90
28171;DHT22;15458;53.346;-1.688;2023-07-22T04:30:57;13.10;99.90
28171;DHT22;15458;53.346;-1.688;2023-07-22T04:33:24;13.00;99.90
28171;DHT22;15458;53.346;-1.688;2023-07-22T04:35:52;13.00;99.90
28171;DHT22;15458;53.346;-1.688;2023-07-22T04:38:18;13.00;99.90
28171;DHT22;15458;53.346;-1.688;2023-07-22T04:40:44;13.00;99.90
28171;DHT22;15458;53.346;-1.688;2023-07-22T04:43:10;13.00;99.90
28171;DHT22;15458;53.346;-1.688;2023-07-22T04:45:35;13.00;99.90
28171;DHT22;15458;53.346;-1.688;2023-07-22T04:48:02;13.00;99.90
28171;DHT22;15458;53.346;-1.688;2023-07-22T04:50:27;13.00;99.90
28171;DHT22;15458;53.346;-1.688;2023-07-22T04:52:54;13.00;99.90
28171;DHT22;15458;53.346;-1.688;2023-07-22T04:55:20;13.00;99.90
28171;DHT22;15458;53.346;-1.688;2023-07-22T04:57:46;13.00;99.90
28171;DHT22;15458;53.346;-1.688;2023-07-22T05:00:12;13.00;99.90
28171;DHT22;15458;53.346;-1.688;2023-07-22T05:02:41;13.00;99.90
28171;DHT22;15458;53.346;-1.688;2023-07-22T05:05:09;13.00;99.90
28171;DHT22;15458;53.346;-1.688;2023-07-22T05:07:35;13.00;99.90
28171;DHT22;15458;53.346;-1.688;2023-07-22T05:10:01;13.00;99.90
28171;DHT22;15458;53.346;-1.688;2023-07-22T05:12:26;12.90;99.90
28171;DHT22;15458;53.346;-1.688;2023-07-22T05:14:52;12.90;99.90
28171;DHT22;15458;53.346;-1.688;2023-07-22T05:17:17;12.90;99.90
28171;DHT22;15458;53.346;-1.688;2023-07-22T05:19:43;12.90;99.90
28171;DHT22;15458;53.346;-1.688;2023-07-22T05:22:09;13.00;99.90
28171;DHT22;15458;53.346;-1.688;2023-07-22T05:24:34;13.00;99.90
28171;DHT22;15458;53.346;-1.688;2023-07-22T05:27:00;13.00;99.90
28171;DHT22;15458;53.346;-1.688;2023-07-22T05:29:26;12.90;99.90
28171;DHT22;15458;53.346;-1.688;2023-07-22T05:31:51;12.90;99.90
28171;DHT22;15458;53.346;-1.688;2023-07-22T05:34:17;12.90;99.90
28171;DHT22;15458;53.346;-1.688;2023-07-22T05:36:43;12.90;99.90
28171;DHT22;15458;53.346;-1.688;2023-07-22T05:39:08;12.90;99.90
28171;DHT22;15458;53.346;-1.688;2023-07-22T05:41:34;12.90;99.90
28171;DHT22;15458;53.346;-1.688;2023-07-22T05:44:00;12.90;99.90
28171;DHT22;15458;53.346;-1.688;2023-07-22T05:46:26;12.90;99.90
28171;DHT22;15458;53.346;-1.688;2023-07-22T05:48:51;12.90;99.90
28171;DHT22;15458;53.346;-1.688;2023-07-22T05:51:18;13.00;99.90
28171;DHT22;15458;53.346;-1.688;2023-07-22T05:53:44;13.00;99.90
28171;DHT22;15458;53.346;-1.688;2023-07-22T05:56:09;13.00;99.90
28171;DHT22;15458;53.346;-1.688;2023-07-22T05:58:36;13.00;99.90
28171;DHT22;15458;53.346;-1.688;2023-07-22T06:01:01;13.00;99.90
28171;DHT22;15458;53.346;-1.688;2023-07-22T06:03:27;13.00;99.90
28171;DHT22;15458;53.346;-1.688;2023-07-22T06:05:53;13.00;99.90
28171;DHT22;15458;53.346;-1.688;2023-07-22T06:08:19;13.00;99.90
28171;DHT22;15458;53.346;-1.688;2023-07-22T06:10:45;13.00;99.90
28171;DHT22;15458;53.346;-1.688;2023-07-22T06:13:10;13.00;99.90
28171;DHT22;15458;53.346;-1.688;2023-07-22T06:15:36;13.00;99.90
28171;DHT22;15458;53.346;-1.688;2023-07-22T06:18:02;13.00;99.90
28171;DHT22;15458;53.346;-1.688;2023-07-22T06:20:28;13.10;99.90
28171;DHT22;15458;53.346;-1.688;2023-07-22T06:22:54;13.10;99.90
28171;DHT22;15458;53.346;-1.688;2023-07-22T06:25:20;13.10;99.90
28171;DHT22;15458;53.346;-1.688;2023-07-22T06:27:46;13.10;99.90
28171;DHT22;15458;53.346;-1.688;2023-07-22T06:30:11;13.20;99.90
28171;DHT22;15458;53.346;-1.688;2023-07-22T06:32:38;13.20;99.90
28171;DHT22;15458;53.346;-1.688;2023-07-22T06:35:05;13.20;99.90
28171;DHT22;15458;53.346;-1.688;2023-07-22T06:37:31;13.30;99.90
28171;DHT22;15458;53.346;-1.688;2023-07-22T06:39:56;13.30;99.90
28171;DHT22;15458;53.346;-1.688;2023-07-22T06:42:22;13.30;99.90
28171;DHT22;15458;53.346;-1.688;2023-07-22T06:44:49;13.30;99.90
28171;DHT22;15458;53.346;-1.688;2023-07-22T06:47:15;13.40;99.90
28171;DHT22;15458;53.346;-1.688;2023-07-22T06:49:41;13.30;99.90
28171;DHT22;15458;53.346;-1.688;2023-07-22T06:52:07;13.40;99.90
28171;DHT22;15458;53.346;-1.688;2023-07-22T06:54:33;13.40;99.90
28171;DHT22;15458;53.346;-1.688;2023-07-22T06:56:59;13.40;99.90
28171;DHT22;15458;53.346;-1.688;2023-07-22T06:59:25;13.40;99.90
28171;DHT22;15458;53.346;-1.688;2023-07-22T07:01:52;13.40;99.90
28171;DHT22;15458;53.346;-1.688;2023-07-22T07:04:17;13.40;99.90
28171;DHT22;15458;53.346;-1.688;2023-07-22T07:06:43;13.40;99.90
28171;DHT22;15458;53.346;-1.688;2023-07-22T07:09:09;13.40;99.90
28171;DHT22;15458;53.346;-1.688;2023-07-22T07:11:34;13.40;99.90
28171;DHT22;15458;53.346;-1.688;2023-07-22T07:14:00;13.40;99.90
28171;DHT22;15458;53.346;-1.688;2023-07-22T07:16:28;13.40;99.90
28171;DHT22;15458;53.346;-1.688;2023-07-22T07:18:54;13.50;99.90
28171;DHT22;15458;53.346;-1.688;2023-07-22T07:21:21;13.50;99.90
28171;DHT22;15458;53.346;-1.688;2023-07-22T07:23:47;13.50;99.90
28171;DHT22;15458;53.346;-1.688;2023-07-22T07:26:13;13.50;99.90
28171;DHT22;15458;53.346;-1.688;2023-07-22T07:28:39;13.50;99.90
28171;DHT22;15458;53.346;-1.688;2023-07-22T07:31:05;13.50;99.90
28171;DHT22;15458;53.346;-1.688;2023-07-22T07:33:31;13.50;99.90
28171;DHT22;15458;53.346;-1.688;2023-07-22T07:35:56;13.60;99.90
28171;DHT22;15458;53.346;-1.688;2023-07-22T07:38:22;13.50;99.90
28171;DHT22;15458;53.346;-1.688;2023-07-22T07:40:59;13.50;99.90
28171;DHT22;15458;53.346;-1.688;2023-07-22T07:43:25;13.50;99.90
28171;DHT22;15458;53.346;-1.688;2023-07-22T07:46:21;13.50;99.90
28171;DHT22;15458;53.346;-1.688;2023-07-22T07:48:49;13.50;99.90
28171;DHT22;15458;53.346;-1.688;2023-07-22T07:51:15;13.40;99.90
28171;DHT22;15458;53.346;-1.688;2023-07-22T07:53:42;13.50;99.90
28171;DHT22;15458;53.346;-1.688;2023-07-22T07:56:09;13.50;99.90
28171;DHT22;15458;53.346;-1.688;2023-07-22T07:58:36;13.50;99.90
28171;DHT22;15458;53.346;-1.688;2023-07-22T08:01:02;13.40;99.90
28171;DHT22;15458;53.346;-1.688;2023-07-22T08:03:27;13.40;99.90
28171;DHT22;15458;53.346;-1.688;2023-07-22T08:05:53;13.50;99.90
28171;DHT22;15458;53.346;-1.688;2023-07-22T08:08:20;13.40;99.90
28171;DHT22;15458;53.346;-1.688;2023-07-22T08:10:45;13.50;99.90
28171;DHT22;15458;53.346;-1.688;2023-07-22T08:13:11;13.50;99.90
28171;DHT22;15458;53.346;-1.688;2023-07-22T08:15:37;13.50;99.90
28171;DHT22;15458;53.346;-1.688;2023-07-22T08:18:02;13.50;99.90
28171;DHT22;15458;53.346;-1.688;2023-07-22T08:20:29;13.50;99.90
28171;DHT22;15458;53.346;-1.688;2023-07-22T08:22:56;13.60;99.90
28171;DHT22;15458;53.346;-1.688;2023-07-22T08:25:21;13.60;99.90
28171;DHT22;15458;53.346;-1.688;2023-07-22T08:27:47;13.60;99.90
28171;DHT22;15458;53.346;-1.688;2023-07-22T08:30:13;13.60;99.90
28171;DHT22;15458;53.346;-1.688;2023-07-22T08:32:38;13.60;99.90
28171;DHT22;15458;53.346;-1.688;2023-07-22T08:35:04;13.70;99.90
28171;DHT22;15458;53.346;-1.688;2023-07-22T08:37:31;13.70;99.90
28171;DHT22;15458;53.346;-1.688;2023-07-22T08:39:57;13.80;99.90
28171;DHT22;15458;53.346;-1.688;2023-07-22T08:42:23;13.80;99.90
28171;DHT22;15458;53.346;-1.688;2023-07-22T08:44:55;13.90;99.90
28171;DHT22;15458;53.346;-1.688;2023-07-22T08:47:22;14.00;99.90
28171;DHT22;15458;53.346;-1.688;2023-07-22T08:49:52;14.00;99.90
28171;DHT22;15458;53.346;-1.688;2023-07-22T08:52:19;14.00;99.90
28171;DHT22;15458;53.346;-1.688;2023-07-22T08:54:45;14.10;99.90
28171;DHT22;15458;53.346;-1.688;2023-07-22T08:57:12;14.10;99.90
28171;DHT22;15458;53.346;-1.688;2023-07-22T08:59:38;14.10;99.90
28171;DHT22;15458;53.346;-1.688;2023-07-22T09:02:04;14.10;99.90
28171;DHT22;15458;53.346;-1.688;2023-07-22T09:04:31;14.10;99.90
28171;DHT22;15458;53.346;-1.688;2023-07-22T09:06:57;14.10;99.90
28171;DHT22;15458;53.346;-1.688;2023-07-22T09:09:24;14.10;99.90
28171;DHT22;15458;53.346;-1.688;2023-07-22T09:11:51;14.10;99.90
28171;DHT22;15458;53.346;-1.688;2023-07-22T09:14:19;14.10;99.90
28171;DHT22;15458;53.346;-1.688;2023-07-22T09:16:45;14.10;99.90
28171;DHT22;15458;53.346;-1.688;2023-07-22T09:19:11;14.10;99.90
28171;DHT22;15458;53.346;-1.688;2023-07-22T09:21:37;14.10;99.90
28171;DHT22;15458;53.346;-1.688;2023-07-22T09:24:25;14.10;99.90
28171;DHT22;15458;53.346;-1.688;2023-07-22T09:26:51;14.10;99.90
28171;DHT22;15458;53.346;-1.688;2023-07-22T09:29:17;14.20;99.90
28171;DHT22;15458;53.346;-1.688;2023-07-22T09:31:51;14.20;99.90
28171;DHT22;15458;53.346;-1.688;2023-07-22T09:34:17;14.20;99.90
28171;DHT22;15458;53.346;-1.688;2023-07-22T09:36:53;14.30;99.90
28171;DHT22;15458;53.346;-1.688;2023-07-22T09:39:20;14.30;99.90
28171;DHT22;15458;53.346;-1.688;2023-07-22T09:41:47;14.30;99.90
28171;DHT22;15458;53.346;-1.688;2023-07-22T09:44:12;14.30;99.90
28171;DHT22;15458;53.346;-1.688;2023-07-22T09:46:39;14.30;99.90
28171;DHT22;15458;53.346;-1.688;2023-07-22T09:49:07;14.30;99.90
28171;DHT22;15458;53.346;-1.688;2023-07-22T09:51:38;14.20;99.90
28171;DHT22;15458;53.346;-1.688;2023-07-22T09:54:05;14.30;99.90
28171;DHT22;15458;53.346;-1.688;2023-07-22T09:56:32;14.30;99.90
28171;DHT22;15458;53.346;-1.688;2023-07-22T09:59:04;14.40;99.90
28171;DHT22;15458;53.346;-1.688;2023-07-22T10:01:31;14.40;99.90
28171;DHT22;15458;53.346;-1.688;2023-07-22T10:03:58;14.50;99.90
28171;DHT22;15458;53.346;-1.688;2023-07-22T10:06:27;14.50;99.90
28171;DHT22;15458;53.346;-1.688;2023-07-22T10:08:56;14.60;99.90
28171;DHT22;15458;53.346;-1.688;2023-07-22T10:11:23;14.70;99.90
28171;DHT22;15458;53.346;-1.688;2023-07-22T10:13:52;14.80;99.90
28171;DHT22;15458;53.346;-1.688;2023-07-22T10:16:18;14.90;99.90
28171;DHT22;15458;53.346;-1.688;2023-07-22T10:18:45;15.00;99.90
28171;DHT22;15458;53.346;-1.688;2023-07-22T10:21:12;15.10;99.90
28171;DHT22;15458;53.346;-1.688;2023-07-22T10:23:38;15.10;99.90
28171;DHT22;15458;53.346;-1.688;2023-07-22T10:26:05;15.20;99.90
28171;DHT22;15458;53.346;-1.688;2023-07-22T10:28:31;15.20;99.90
28171;DHT22;15458;53.346;-1.688;2023-07-22T10:30:58;15.30;99.90
28171;DHT22;15458;53.346;-1.688;2023-07-22T10:33:24;15.30;99.90
28171;DHT22;15458;53.346;-1.688;2023-07-22T10:36:08;15.40;99.90
28171;DHT22;15458;53.346;-1.688;2023-07-22T10:38:35;15.40;99.90
28171;DHT22;15458;53.346;-1.688;2023-07-22T10:41:01;15.40;99.90
28171;DHT22;15458;53.346;-1.688;2023-07-22T10:43:36;15.50;99.90
28171;DHT22;15458;53.346;-1.688;2023-07-22T10:46:12;15.60;99.90
28171;DHT22;15458;53.346;-1.688;2023-07-22T10:48:42;15.60;99.90
28171;DHT22;15458;53.346;-1.688;2023-07-22T10:51:13;15.60;99.90
28171;DHT22;15458;53.346;-1.688;2023-07-22T10:53:49;15.50;99.90
28171;DHT22;15458;53.346;-1.688;2023-07-22T10:56:20;15.50;99.90
28171;DHT22;15458;53.346;-1.688;2023-07-22T11:04:24;15.40;99.90
28171;DHT22;15458;53.346;-1.688;2023-07-22T11:07:04;15.40;99.90
28171;DHT22;15458;53.346;-1.688;2023-07-22T11:14:35;15.40;99.90
28171;DHT22;15458;53.346;-1.688;2023-07-22T11:17:04;15.50;99.90
28171;DHT22;15458;53.346;-1.688;2023-07-22T11:19:30;15.50;99.90
28171;DHT22;15458;53.346;-1.688;2023-07-22T11:21:56;15.60;99.90
28171;DHT22;15458;53.346;-1.688;2023-07-22T11:24:23;15.60;99.90
28171;DHT22;15458;53.346;-1.688;2023-07-22T11:26:50;15.80;99.90
28171;DHT22;15458;53.346;-1.688;2023-07-22T11:29:16;15.70;99.90
28171;DHT22;15458;53.346;-1.688;2023-07-22T11:31:44;15.80;99.90
28171;DHT22;15458;53.346;-1.688;2023-07-22T11:34:15;15.90;99.90
28171;DHT22;15458;53.346;-1.688;2023-07-22T11:36:41;16.00;99.90
28171;DHT22;15458;53.346;-1.688;2023-07-22T11:39:09;16.00;99.90
28171;DHT22;15458;53.346;-1.688;2023-07-22T11:41:36;16.10;99.90
28171;DHT22;15458;53.346;-1.688;2023-07-22T11:44:03;16.10;99.90
28171;DHT22;15458;53.346;-1.688;2023-07-22T11:46:35;16.10;99.90
28171;DHT22;15458;53.346;-1.688;2023-07-22T11:49:01;16.10;99.90
28171;DHT22;15458;53.346;-1.688;2023-07-22T11:51:27;16.10;99.90
28171;DHT22;15458;53.346;-1.688;2023-07-22T11:53:54;16.10;99.90
28171;DHT22;15458;53.346;-1.688;2023-07-22T11:56:26;16.10;99.90
28171;DHT22;15458;53.346;-1.688;2023-07-22T11:58:53;16.10;99.90
28171;DHT22;15458;53.346;-1.688;2023-07-22T12:01:19;16.20;99.90
28171;DHT22;15458;53.346;-1.688;2023-07-22T12:03:45;16.20;99.90
28171;DHT22;15458;53.346;-1.688;2023-07-22T12:06:12;16.30;99.90
28171;DHT22;15458;53.346;-1.688;2023-07-22T12:08:44;16.20;99.90
28171;DHT22;15458;53.346;-1.688;2023-07-22T12:11:24;16.20;99.90
28171;DHT22;15458;53.346;-1.688;2023-07-22T12:14:13;16.10;99.90
28171;DHT22;15458;53.346;-1.688;2023-07-22T12:16:42;16.10;99.90
28171;DHT22;15458;53.346;-1.688;2023-07-22T12:19:09;16.00;99.90
28171;DHT22;15458;53.346;-1.688;2023-07-22T12:21:35;16.00;99.90
28171;DHT22;15458;53.346;-1.688;2023-07-22T12:24:01;15.90;99.90
28171;DHT22;15458;53.346;-1.688;2023-07-22T12:26:28;15.80;99.90
28171;DHT22;15458;53.346;-1.688;2023-07-22T12:28:54;15.80;99.90
28171;DHT22;15458;53.346;-1.688;2023-07-22T12:31:19;15.80;99.90
28171;DHT22;15458;53.346;-1.688;2023-07-22T12:33:45;15.80;99.90
28171;DHT22;15458;53.346;-1.688;2023-07-22T12:36:11;15.80;99.90
28171;DHT22;15458;53.346;-1.688;2023-07-22T12:38:37;15.80;99.90
28171;DHT22;15458;53.346;-1.688;2023-07-22T12:41:02;15.80;99.90
28171;DHT22;15458;53.346;-1.688;2023-07-22T12:43:29;15.70;99.90
28171;DHT22;15458;53.346;-1.688;2023-07-22T12:45:54;15.70;99.90
28171;DHT22;15458;53.346;-1.688;2023-07-22T12:48:20;15.70;99.90
28171;DHT22;15458;53.346;-1.688;2023-07-22T12:50:46;15.60;99.90
28171;DHT22;15458;53.346;-1.688;2023-07-22T12:53:13;15.60;99.90
28171;DHT22;15458;53.346;-1.688;2023-07-22T12:55:39;15.60;99.90
28171;DHT22;15458;53.346;-1.688;2023-07-22T12:58:05;15.60;99.90
28171;DHT22;15458;53.346;-1.688;2023-07-22T13:00:30;15.70;99.90
28171;DHT22;15458;53.346;-1.688;2023-07-22T13:02:56;15.70;99.90
28171;DHT22;15458;53.346;-1.688;2023-07-22T13:05:22;15.70;99.90
28171;DHT22;15458;53.346;-1.688;2023-07-22T13:07:48;15.70;99.90
28171;DHT22;15458;53.346;-1.688;2023-07-22T13:10:15;15.70;99.90
28171;DHT22;15458;53.346;-1.688;2023-07-22T13:12:43;15.70;99.90
28171;DHT22;15458;53.346;-1.688;2023-07-22T13:15:09;15.70;99.90
28171;DHT22;15458;53.346;-1.688;2023-07-22T13:17:35;15.80;99.90
28171;DHT22;15458;53.346;-1.688;2023-07-22T13:20:02;15.80;99.90
28171;DHT22;15458;53.346;-1.688;2023-07-22T13:22:30;15.80;99.90
28171;DHT22;15458;53.346;-1.688;2023-07-22T13:24:56;15.80;99.90
28171;DHT22;15458;53.346;-1.688;2023-07-22T13:27:21;15.90;99.90
28171;DHT22;15458;53.346;-1.688;2023-07-22T13:29:47;15.90;99.90
28171;DHT22;15458;53.346;-1.688;2023-07-22T13:32:13;16.00;99.90
28171;DHT22;15458;53.346;-1.688;2023-07-22T13:34:38;16.00;99.90
28171;DHT22;15458;53.346;-1.688;2023-07-22T13:37:04;16.10;99.90
28171;DHT22;15458;53.346;-1.688;2023-07-22T13:39:31;16.00;99.90
28171;DHT22;15458;53.346;-1.688;2023-07-22T13:41:56;16.00;99.90
28171;DHT22;15458;53.346;-1.688;2023-07-22T13:44:22;16.00;99.90
28171;DHT22;15458;53.346;-1.688;2023-07-22T13:46:48;16.00;99.90
28171;DHT22;15458;53.346;-1.688;2023-07-22T13:49:13;16.00;99.90
28171;DHT22;15458;53.346;-1.688;2023-07-22T13:51:40;16.00;99.90
28171;DHT22;15458;53.346;-1.688;2023-07-22T13:54:06;16.00;99.90
28171;DHT22;15458;53.346;-1.688;2023-07-22T13:56:32;15.90;99.90
28171;DHT22;15458;53.346;-1.688;2023-07-22T13:58:58;16.00;99.90
28171;DHT22;15458;53.346;-1.688;2023-07-22T14:01:26;16.00;99.90
28171;DHT22;15458;53.346;-1.688;2023-07-22T14:03:53;16.00;99.90
28171;DHT22;15458;53.346;-1.688;2023-07-22T14:06:19;15.90;99.90
28171;DHT22;15458;53.346;-1.688;2023-07-22T14:08:44;15.90;99.90
28171;DHT22;15458;53.346;-1.688;2023-07-22T14:11:10;15.90;99.90
28171;DHT22;15458;53.346;-1.688;2023-07-22T14:13:36;15.90;99.90
28171;DHT22;15458;53.346;-1.688;2023-07-22T14:16:02;16.00;99.90
28171;DHT22;15458;53.346;-1.688;2023-07-22T14:18:28;16.00;99.90
28171;DHT22;15458;53.346;-1.688;2023-07-22T14:20:54;16.00;99.90
28171;DHT22;15458;53.346;-1.688;2023-07-22T14:23:20;16.10;99.90
28171;DHT22;15458;53.346;-1.688;2023-07-22T14:25:46;16.00;99.90
28171;DHT22;15458;53.346;-1.688;2023-07-22T14:28:11;16.10;99.90
28171;DHT22;15458;53.346;-1.688;2023-07-22T14:30:37;16.10;99.90
28171;DHT22;15458;53.346;-1.688;2023-07-22T14:33:03;16.10;99.90
28171;DHT22;15458;53.346;-1.688;2023-07-22T14:35:28;16.20;99.90
28171;DHT22;15458;53.346;-1.688;2023-07-22T14:37:54;16.10;99.90
28171;DHT22;15458;53.346;-1.688;2023-07-22T14:40:19;16.20;99.90
28171;DHT22;15458;53.346;-1.688;2023-07-22T14:42:45;16.20;99.90
28171;DHT22;15458;53.346;-1.688;2023-07-22T14:45:11;16.30;99.90
28171;DHT22;15458;53.346;-1.688;2023-07-22T14:47:36;16.30;99.90
28171;DHT22;15458;53.346;-1.688;2023-07-22T14:50:02;16.30;99.90
28171;DHT22;15458;53.346;-1.688;2023-07-22T14:52:28;16.30;99.90
28171;DHT22;15458;53.346;-1.688;2023-07-22T14:54:54;16.30;99.90
28171;DHT22;15458;53.346;-1.688;2023-07-22T14:57:19;16.40;99.90
28171;DHT22;15458;53.346;-1.688;2023-07-22T14:59:45;16.50;99.90
28171;DHT22;15458;53.346;-1.688;2023-07-22T15:02:12;16.50;99.90
28171;DHT22;15458;53.346;-1.688;2023-07-22T15:04:37;16.50;99.90
28171;DHT22;15458;53.346;-1.688;2023-07-22T15:07:03;16.60;99.90
28171;DHT22;15458;53.346;-1.688;2023-07-22T15:09:29;16.50;99.90
28171;DHT22;15458;53.346;-1.688;2023-07-22T15:11:55;16.60;99.90
28171;DHT22;15458;53.346;-1.688;2023-07-22T15:14:21;16.60;99.90
28171;DHT22;15458;53.346;-1.688;2023-07-22T15:16:47;16.60;99.90
28171;DHT22;15458;53.346;-1.688;2023-07-22T15:19:13;16.60;99.90
28171;DHT22;15458;53.346;-1.688;2023-07-22T15:21:38;16.60;99.90
28171;DHT22;15458;53.346;-1.688;2023-07-22T15:24:04;16.60;99.90